Time;durP1;ratioP1;P1;durP2;ratioP2;P2;SDS_P1;SDS_P2;PMS_P1;PMS_P2;Temp;Humidity;BMP_temperature;BMP_pressure;BME280_temperature;BME280_humidity;BME280_pressure;Samples;Min_cycle;Max_cycle;Signal;HPM_P1;HPM_P2
2021/12/14 00:02:18;;;;;;;385.67;198.15;;;;;;;10.83;100.00;98993.56;5067971;28;20052;-63
2021/12/14 00:04:59;;;;;;;391.45;198.43;;;;;;;10.67;100.00;98984.53;5078500;28;20047;-62
2021/12/14 00:07:49;;;;;;;395.92;199.55;;;;;;;10.65;100.00;98994.88;5086001;28;20430;-62
2021/12/14 00:13:41;;;;;;;397.40;201.35;;;;;;;10.62;100.00;98997.53;5064292;28;20165;-62
2021/12/14 00:16:30;;;;;;;386.58;193.98;;;;;;;10.74;100.00;99009.25;5065964;28;20054;-62
2021/12/14 00:19:12;;;;;;;398.08;199.50;;;;;;;10.82;100.00;99007.34;5061620;28;20052;-62
2021/12/14 00:22:06;;;;;;;387.75;194.60;;;;;;;10.80;100.00;99013.41;5065754;28;20045;-62
2021/12/14 00:24:49;;;;;;;407.58;202.00;;;;;;;10.58;100.00;99019.09;5047445;28;20063;-62
2021/12/14 00:27:38;;;;;;;380.75;192.25;;;;;;;10.65;100.00;99017.22;5065548;28;20071;-62
2021/12/14 00:30:26;;;;;;;387.58;197.02;;;;;;;10.49;100.00;99021.06;5065947;28;20065;-62
2021/12/14 00:33:08;;;;;;;371.10;192.65;;;;;;;10.63;100.00;99024.13;5047851;28;20048;-64
2021/12/14 00:35:56;;;;;;;382.52;197.50;;;;;;;10.59;100.00;99028.53;5049175;28;20056;-62
2021/12/14 00:38:38;;;;;;;385.45;194.30;;;;;;;10.64;100.00;99020.69;5066291;28;20664;-62
2021/12/14 00:41:32;;;;;;;391.73;194.93;;;;;;;10.73;100.00;99020.44;5066238;28;20086;-62
2021/12/14 00:44:15;;;;;;;376.67;190.63;;;;;;;10.75;100.00;99029.00;5047959;28;20056;-62
2021/12/14 00:47:04;;;;;;;380.77;194.02;;;;;;;10.70;100.00;99025.66;5048235;28;20059;-63
2021/12/14 00:49:47;;;;;;;382.90;190.82;;;;;;;10.71;100.00;99032.53;5046863;28;20048;-63
2021/12/14 00:52:37;;;;;;;365.10;185.85;;;;;;;10.64;100.00;99030.97;5045298;28;20044;-62
2021/12/14 00:55:25;;;;;;;368.52;183.95;;;;;;;10.72;100.00;99034.22;5046683;28;20059;-62
2021/12/14 00:58:21;;;;;;;373.13;188.35;;;;;;;10.69;100.00;99034.31;5047735;28;20050;-62
2021/12/14 01:01:41;;;;;;;371.75;185.98;;;;;;;10.50;100.00;99031.34;5047897;28;20052;-62
2021/12/14 01:04:36;;;;;;;377.77;185.45;;;;;;;10.57;100.00;99040.59;5012821;28;20053;-62
2021/12/14 01:07:27;;;;;;;387.90;189.63;;;;;;;10.44;100.00;99046.94;5018339;28;20111;-63
2021/12/14 01:10:38;;;;;;;363.23;183.82;;;;;;;10.42;100.00;99050.41;5007930;28;20049;-62
2021/12/14 01:13:31;;;;;;;376.10;185.88;;;;;;;10.52;100.00;99051.91;5008014;28;20045;-62
2021/12/14 01:16:29;;;;;;;376.52;187.05;;;;;;;10.37;100.00;99058.25;5024886;28;20049;-63
2021/12/14 01:19:25;;;;;;;374.13;187.65;;;;;;;10.32;100.00;99055.78;5022408;28;20057;-62
2021/12/14 01:25:18;;;;;;;366.55;186.18;;;;;;;10.36;100.00;99066.88;5047762;28;20048;-62
2021/12/14 01:28:12;;;;;;;366.95;182.82;;;;;;;10.35;100.00;99066.03;5008546;28;20053;-62
2021/12/14 01:33:56;;;;;;;365.85;185.82;;;;;;;10.25;100.00;99073.97;5001296;28;20049;-63
2021/12/14 01:36:47;;;;;;;370.30;187.68;;;;;;;10.16;100.00;99071.56;5010506;28;20836;-63
2021/12/14 01:40:01;;;;;;;371.75;183.35;;;;;;;10.12;100.00;99070.81;5007971;28;20127;-62
2021/12/14 01:42:47;;;;;;;364.48;186.13;;;;;;;10.08;100.00;99082.03;4993185;28;20053;-62
2021/12/14 01:45:36;;;;;;;370.67;184.82;;;;;;;10.09;100.00;99083.72;5004325;28;20133;-62
2021/12/14 01:48:18;;;;;;;373.85;185.30;;;;;;;10.08;100.00;99076.88;5008801;28;20065;-63
2021/12/14 01:51:25;;;;;;;372.45;183.27;;;;;;;10.11;100.00;99086.28;5026893;28;20070;-62
2021/12/14 01:54:37;;;;;;;376.70;186.77;;;;;;;10.08;100.00;99096.63;5024505;28;20692;-63
2021/12/14 01:57:23;;;;;;;376.25;188.98;;;;;;;10.16;100.00;99098.16;5016487;28;20068;-62
2021/12/14 02:00:15;;;;;;;385.83;188.40;;;;;;;10.11;100.00;99102.56;5012502;28;20151;-62
2021/12/14 02:02:57;;;;;;;369.75;186.52;;;;;;;10.21;100.00;99109.25;5023909;28;20048;-61
2021/12/14 02:06:03;;;;;;;394.52;190.63;;;;;;;10.20;100.00;99114.44;5046410;28;20820;-60
2021/12/14 02:08:46;;;;;;;388.17;192.10;;;;;;;10.20;100.00;99117.84;5046650;28;20081;-61
2021/12/14 02:11:39;;;;;;;390.02;192.73;;;;;;;10.41;100.00;99118.25;5047440;28;20048;-62
2021/12/14 02:14:22;;;;;;;401.33;195.70;;;;;;;10.32;100.00;99133.03;5048162;28;20053;-62
2021/12/14 02:17:13;;;;;;;393.88;196.90;;;;;;;10.57;100.00;99128.19;5030476;28;20540;-63
2021/12/14 02:19:55;;;;;;;400.25;195.98;;;;;;;10.70;100.00;99128.72;5045699;28;20538;-62
2021/12/14 02:22:44;;;;;;;396.27;192.65;;;;;;;10.81;100.00;99137.06;5026430;28;20127;-61
2021/12/14 02:25:33;;;;;;;385.55;192.88;;;;;;;10.76;100.00;99143.22;5027448;28;20072;-61
2021/12/14 02:28:22;;;;;;;388.65;195.38;;;;;;;10.69;100.00;99145.09;5011887;28;20045;-61
2021/12/14 02:31:07;;;;;;;398.05;194.93;;;;;;;10.89;100.00;99148.03;5027097;28;20069;-61
2021/12/14 02:33:59;;;;;;;388.80;194.73;;;;;;;10.90;100.00;99157.47;5026659;28;20500;-61
2021/12/14 02:36:49;;;;;;;389.13;192.68;;;;;;;10.81;100.00;99162.00;5026783;28;20694;-61
2021/12/14 02:42:30;;;;;;;369.63;188.75;;;;;;;10.96;100.00;99154.75;5027264;28;20049;-61
2021/12/14 02:45:12;;;;;;;384.92;192.98;;;;;;;10.92;100.00;99157.44;5041432;28;20045;-61
2021/12/14 02:48:07;;;;;;;392.77;188.45;;;;;;;11.03;100.00;99160.59;5045900;28;20044;-62
2021/12/14 02:50:49;;;;;;;382.50;189.90;;;;;;;11.05;100.00;99158.84;5047213;28;20053;-61
2021/12/14 02:53:38;;;;;;;370.85;188.98;;;;;;;11.05;100.00;99164.84;5047058;28;20045;-62
2021/12/14 02:56:27;;;;;;;405.83;194.50;;;;;;;11.24;100.00;99172.13;5025915;28;20064;-63
2021/12/14 02:59:21;;;;;;;382.33;191.00;;;;;;;11.20;100.00;99183.41;5007979;28;20449;-61
2021/12/14 03:02:14;;;;;;;394.27;196.65;;;;;;;11.35;100.00;99177.84;5014365;28;20053;-62
2021/12/14 03:05:15;;;;;;;;;;;;;;;11.39;100.00;99177.75;5007363;28;20502;-62
2021/12/14 03:07:55;;;;;;;404.70;196.27;;;;;;;11.58;100.00;99183.28;4987809;28;20625;-62
2021/12/14 03:11:31;;;;;;;385.85;190.95;;;;;;;11.59;100.00;99189.28;5000972;28;20061;-62
2021/12/14 03:13:55;;;;;;;384.88;190.80;;;;;;;11.80;100.00;99194.78;5002195;28;20713;-62
2021/12/14 03:16:44;;;;;;;393.65;191.18;;;;;;;12.32;100.00;99195.91;5024959;28;20064;-62
2021/12/14 03:19:33;;;;;;;392.15;188.98;;;;;;;12.43;100.00;99196.44;5009235;28;20057;-63
2021/12/14 03:22:31;;;;;;;371.38;186.40;;;;;;;12.44;100.00;99203.31;4994146;28;20045;-62
2021/12/14 03:25:21;;;;;;;380.30;186.48;;;;;;;12.57;100.00;99209.81;4993543;28;20509;-63
2021/12/14 03:28:03;;;;;;;360.88;183.68;;;;;;;12.76;100.00;99217.00;5015391;28;20132;-62
2021/12/14 03:31:17;;;;;;;368.67;184.70;;;;;;;12.90;100.00;99222.59;5022601;28;20513;-62
2021/12/14 03:34:10;;;;;;;;;;;;;;;12.97;100.00;99213.75;5006231;28;20137;-62
2021/12/14 03:36:58;;;;;;;348.38;172.23;;;;;;;13.06;100.00;99220.38;5026680;28;19925;-64
2021/12/14 03:39:50;;;;;;;354.27;181.77;;;;;;;13.07;100.00;99219.50;5008137;28;20132;-63
2021/12/14 03:42:45;;;;;;;356.42;178.00;;;;;;;13.29;100.00;99230.88;5008702;28;20042;-62
2021/12/14 03:45:34;;;;;;;357.08;183.57;;;;;;;13.58;100.00;99229.91;5011946;28;20091;-63
2021/12/14 03:48:19;;;;;;;355.13;184.93;;;;;;;13.55;100.00;99233.47;5002552;28;20436;-63
2021/12/14 03:51:13;;;;;;;361.05;182.82;;;;;;;13.62;100.00;99250.50;4995486;28;20055;-63
2021/12/14 03:53:51;;;;;;;360.73;182.27;;;;;;;13.76;100.00;99252.63;5012969;28;20137;-63
2021/12/14 03:56:48;;;;;;;358.73;180.43;;;;;;;13.65;100.00;99250.38;5006136;28;20111;-63
2021/12/14 03:59:31;;;;;;;357.17;181.63;;;;;;;13.82;100.00;99261.91;5003409;28;20500;-63
2021/12/14 04:02:27;;;;;;;364.05;187.20;;;;;;;13.86;100.00;99258.34;4999580;28;20057;-63
2021/12/14 04:05:16;;;;;;;356.17;182.50;;;;;;;14.05;100.00;99264.56;5039653;28;20130;-63
2021/12/14 04:08:04;;;;;;;359.88;180.15;;;;;;;14.27;100.00;99270.72;5041347;28;20168;-63
2021/12/14 04:10:48;;;;;;;349.35;180.38;;;;;;;14.29;100.00;99268.88;5042128;28;20076;-63
2021/12/14 04:13:47;;;;;;;332.63;173.70;;;;;;;14.49;100.00;99281.19;5040450;28;20548;-62
2021/12/14 04:16:43;;;;;;;;;;;;;;;14.91;100.00;99286.53;5044241;28;20056;-63
2021/12/14 04:19:30;;;;;;;313.65;159.05;;;;;;;14.51;100.00;99295.78;5041076;28;19959;-63
2021/12/14 04:22:26;;;;;;;385.70;173.10;;;;;;;14.41;100.00;99284.03;5042653;28;20041;-63
2021/12/14 04:25:11;;;;;;;317.42;161.25;;;;;;;14.72;100.00;99293.28;5043333;28;20124;-63
2021/12/14 04:28:04;;;;;;;325.77;162.80;;;;;;;15.00;100.00;99303.50;5043617;28;20063;-63
2021/12/14 04:30:47;;;;;;;312.20;158.30;;;;;;;14.58;100.00;99304.19;5038310;28;20049;-63
2021/12/14 04:33:41;;;;;;;314.63;157.00;;;;;;;15.10;100.00;99297.03;5021382;28;20045;-63
2021/12/14 04:36:32;;;;;;;305.08;158.68;;;;;;;15.17;100.00;99307.13;5022610;28;20065;-63
2021/12/14 04:55:05;;;;;;;311.70;154.85;;;;;;;15.35;100.00;99304.72;5028915;28;20520;-63
2021/12/14 04:57:47;;;;;;;318.17;157.73;;;;;;;15.51;100.00;99314.44;5040920;28;20534;-63
2021/12/14 05:00:44;;;;;;;289.88;145.45;;;;;;;15.55;100.00;99315.22;5039979;28;20484;-63
2021/12/14 05:03:57;;;;;;;294.58;146.77;;;;;;;15.69;100.00;99318.94;5046274;28;20092;-63
2021/12/14 05:06:55;;;;;;;280.25;143.95;;;;;;;15.99;100.00;99318.56;5041820;28;20055;-63
2021/12/14 05:09:44;;;;;;;274.20;141.00;;;;;;;15.70;100.00;99317.19;5043008;28;20053;-63
2021/12/14 05:12:33;;;;;;;271.37;139.97;;;;;;;15.82;100.00;99321.03;5047577;28;20495;-63
2021/12/14 05:15:26;;;;;;;275.13;138.90;;;;;;;15.95;100.00;99315.28;5036326;28;20050;-63
2021/12/14 05:18:07;;;;;;;262.60;137.55;;;;;;;15.83;100.00;99314.91;5034041;28;20048;-63
2021/12/14 05:21:04;;;;;;;266.92;138.65;;;;;;;16.05;100.00;99318.31;5034262;28;20048;-64
2021/12/14 05:23:45;;;;;;;268.42;137.50;;;;;;;16.01;100.00;99314.16;5046545;28;20151;-63
2021/12/14 05:26:38;;;;;;;277.30;138.85;;;;;;;16.23;100.00;99312.34;5045969;28;20076;-63
2021/12/14 05:29:33;;;;;;;251.88;132.98;;;;;;;16.18;99.79;99310.84;5044837;28;20132;-63
2021/12/14 05:32:17;;;;;;;254.38;130.40;;;;;;;16.48;99.23;99317.31;5048325;28;20655;-63
2021/12/14 05:35:05;;;;;;;262.58;130.18;;;;;;;16.61;97.68;99315.91;5046632;28;20159;-63
2021/12/14 05:37:53;;;;;;;264.20;130.90;;;;;;;17.13;96.12;99306.59;5045780;28;20490;-62
2021/12/14 05:43:43;;;;;;;246.52;122.97;;;;;;;17.14;92.94;99308.28;5050305;28;20052;-63
2021/12/14 05:46:50;;;;;;;246.40;121.28;;;;;;;17.11;91.87;99304.97;5028153;28;20051;-63
2021/12/14 05:49:44;;;;;;;231.90;121.45;;;;;;;17.38;94.03;99301.06;5072931;28;20048;-62
2021/12/14 05:52:34;;;;;;;241.52;119.63;;;;;;;17.42;89.60;99296.53;5055478;28;20056;-63
2021/12/14 05:55:29;;;;;;;230.68;118.20;;;;;;;17.39;88.75;99297.53;5055504;28;20051;-63
2021/12/14 05:58:17;;;;;;;227.75;115.75;;;;;;;17.43;87.08;99299.06;5033921;28;20059;-62
2021/12/14 06:01:09;;;;;;;221.57;116.95;;;;;;;17.86;88.17;99294.41;5053170;28;20785;-63
2021/12/14 06:03:59;;;;;;;220.18;114.93;;;;;;;17.81;85.86;99293.78;5057910;28;20056;-64
2021/12/14 06:06:52;;;;;;;202.88;109.43;;;;;;;17.71;84.84;99283.00;5053361;28;20072;-62
2021/12/14 06:09:39;;;;;;;221.02;116.22;;;;;;;17.96;84.78;99283.44;5047298;28;20646;-64
2021/12/14 06:12:42;;;;;;;205.32;110.40;;;;;;;17.75;84.10;99271.47;5052083;28;20053;-63
2021/12/14 06:15:28;;;;;;;204.80;109.40;;;;;;;17.89;82.56;99274.22;5043907;28;20079;-64
2021/12/14 06:18:24;;;;;;;199.05;108.35;;;;;;;17.87;81.92;99267.44;5034171;28;20375;-63
2021/12/14 06:21:14;;;;;;;219.32;108.10;;;;;;;17.89;79.62;99261.19;5048424;28;20143;-64
2021/12/14 06:24:14;;;;;;;204.10;113.32;;;;;;;18.24;81.17;99258.56;5053670;28;20123;-64
2021/12/14 06:26:53;;;;;;;213.32;112.38;;;;;;;18.06;79.84;99251.69;5054131;28;20056;-64
2021/12/14 06:29:50;;;;;;;205.63;112.68;;;;;;;18.14;80.63;99254.75;5052905;28;20064;-64
2021/12/14 06:32:45;;;;;;;210.25;112.65;;;;;;;18.19;79.59;99258.81;5054671;28;20132;-64
2021/12/14 06:35:37;;;;;;;209.05;111.18;;;;;;;18.39;80.25;99247.31;5070940;28;20044;-63
2021/12/14 06:38:27;;;;;;;220.05;115.03;;;;;;;18.52;78.76;99245.75;5052233;28;20056;-62
2021/12/14 06:41:23;;;;;;;208.98;113.22;;;;;;;18.27;79.13;99245.38;5050452;28;20491;-63
2021/12/14 06:44:07;;;;;;;224.88;112.57;;;;;;;18.56;76.58;99239.47;5052722;28;20174;-63
2021/12/14 06:46:56;;;;;;;201.07;108.90;;;;;;;18.61;78.20;99232.22;5068319;28;20051;-64
2021/12/14 06:49:45;;;;;;;199.98;109.32;;;;;;;18.51;77.98;99225.81;5051345;28;20115;-63
2021/12/14 06:52:33;;;;;;;211.55;109.88;;;;;;;18.71;77.06;99230.81;5048655;28;20464;-63
2021/12/14 06:55:36;;;;;;;197.13;101.38;;;;;;;18.57;74.19;99230.72;5065779;28;20052;-63
2021/12/14 06:59:13;;;;;;;194.32;100.70;;;;;;;18.84;76.36;99214.47;5040512;28;20056;-63
2021/12/14 07:02:41;;;;;;;191.18;96.25;;;;;;;18.62;73.68;99212.19;5066292;28;20083;-62
2021/12/14 07:05:50;;;;;;;197.25;100.57;;;;;;;18.93;75.48;99199.16;5051890;28;20369;-63
2021/12/14 07:08:32;;;;;;;214.02;101.95;;;;;;;18.89;74.36;99207.25;5038994;28;20044;-63
2021/12/14 07:11:30;;;;;;;194.90;102.35;;;;;;;18.97;74.05;99200.66;5076059;28;20056;-63
2021/12/14 07:14:22;;;;;;;182.75;98.72;;;;;;;19.07;73.18;99195.78;5052616;28;20056;-64
2021/12/14 07:17:25;;;;;;;196.32;98.93;;;;;;;19.34;73.40;99198.56;5067396;28;20472;-64
2021/12/14 07:20:25;;;;;;;188.63;100.30;;;;;;;18.77;71.96;99187.03;5068758;28;20762;-63
2021/12/14 07:23:25;;;;;;;185.45;98.18;;;;;;;18.72;72.31;99179.47;5067541;28;20489;-64
2021/12/14 07:26:17;;;;;;;189.40;99.60;;;;;;;19.17;73.67;99181.25;5066707;28;20497;-61
2021/12/14 07:29:05;;;;;;;177.02;99.00;;;;;;;19.29;71.52;99183.19;5064642;28;20281;-60
2021/12/14 07:31:48;;;;;;;176.82;98.55;;;;;;;19.12;69.89;99178.06;5065220;28;20141;-61
2021/12/14 07:34:36;;;;;;;184.25;97.75;;;;;;;18.91;72.21;99174.06;5068385;28;20044;-61
2021/12/14 07:37:17;;;;;;;187.43;97.20;;;;;;;19.01;71.39;99173.44;5067028;28;20064;-61
2021/12/14 07:40:06;;;;;;;180.30;98.50;;;;;;;18.86;71.00;99169.09;5066560;28;20048;-62
2021/12/14 07:42:48;;;;;;;190.88;99.47;;;;;;;19.00;72.77;99173.53;5065810;28;20076;-61
2021/12/14 07:45:36;;;;;;;179.90;96.38;;;;;;;19.07;73.36;99161.84;5064959;28;20059;-61
2021/12/14 07:48:19;;;;;;;185.85;101.20;;;;;;;18.92;71.67;99162.66;5066674;28;20048;-62
2021/12/14 07:51:08;;;;;;;175.88;99.15;;;;;;;18.92;71.57;99162.66;5066171;28;20545;-62
2021/12/14 07:53:57;;;;;;;169.55;95.15;;;;;;;19.10;72.19;99159.88;5063426;28;20045;-62
2021/12/14 07:56:52;;;;;;;187.00;95.95;;;;;;;19.01;71.19;99159.53;5064017;28;20063;-62
2021/12/14 07:59:58;;;;;;;183.38;96.63;;;;;;;18.85;71.04;99149.13;5067003;28;20156;-61
2021/12/14 08:02:58;;;;;;;180.55;95.13;;;;;;;19.01;72.11;99141.25;5061410;28;20057;-60
2021/12/14 08:05:48;;;;;;;182.23;94.63;;;;;;;19.18;71.70;99148.97;5058231;28;20045;-60
2021/12/14 08:08:45;;;;;;;170.10;90.35;;;;;;;19.20;69.01;99144.50;5041467;28;20396;-60
2021/12/14 08:14:26;;;;;;;163.07;91.40;;;;;;;19.23;70.90;99143.50;5045797;28;20381;-59
2021/12/14 08:17:14;;;;;;;190.13;91.30;;;;;;;19.17;69.37;99134.22;5046813;28;20373;-59
2021/12/14 08:19:59;;;;;;;173.95;91.05;;;;;;;19.28;69.61;99134.47;5047427;28;20139;-59
2021/12/14 08:23:24;;;;;;;165.95;88.82;;;;;;;19.24;71.35;99126.88;5028173;28;20053;-60
2021/12/14 08:26:34;;;;;;;174.93;90.50;;;;;;;19.22;70.41;99116.53;5045721;28;20045;-61
2021/12/14 08:29:28;;;;;;;182.93;94.65;;;;;;;19.15;71.20;99115.22;5042953;28;20041;-59
2021/12/14 08:32:22;;;;;;;;;;;;;;;19.20;71.74;99117.56;5047181;28;20598;-61
2021/12/14 08:35:09;;;;;;;185.13;91.53;;;;;;;18.99;72.28;99109.19;5015108;28;19930;-59
2021/12/14 08:38:04;;;;;;;179.77;93.32;;;;;;;19.08;71.07;99108.63;5044203;28;20045;-62
2021/12/14 08:40:57;;;;;;;184.57;97.80;;;;;;;18.80;70.74;99105.94;5045326;28;20053;-59
2021/12/14 08:43:50;;;;;;;193.80;97.35;;;;;;;18.96;72.61;99099.75;5046521;28;20061;-62
2021/12/14 08:46:32;;;;;;;179.27;95.63;;;;;;;18.95;73.45;99099.84;5046859;28;20064;-61
2021/12/14 08:49:21;;;;;;;185.60;95.53;;;;;;;18.81;72.51;99091.97;5044815;28;20805;-62
2021/12/14 08:52:04;;;;;;;170.98;96.90;;;;;;;18.73;72.57;99093.25;5045426;28;20048;-61
2021/12/14 08:54:53;;;;;;;175.75;94.18;;;;;;;18.76;72.84;99092.22;5045993;28;20091;-62
2021/12/14 08:57:35;;;;;;;166.60;92.60;;;;;;;18.68;71.54;99097.84;5046594;28;20065;-61
2021/12/14 09:00:36;;;;;;;173.75;91.78;;;;;;;18.78;72.88;99089.50;5045758;28;20052;-61
2021/12/14 09:03:32;;;;;;;174.75;96.68;;;;;;;18.77;71.54;99083.44;5035003;28;20068;-62
2021/12/14 09:06:28;;;;;;;176.32;95.10;;;;;;;18.49;69.89;99089.38;5063974;28;20053;-60
2021/12/14 09:09:14;;;;;;;187.90;98.03;;;;;;;18.72;73.72;99080.28;5045114;28;20049;-60
2021/12/14 09:12:19;;;;;;;187.88;99.47;;;;;;;18.81;71.47;99081.53;5064287;28;20080;-60
2021/12/14 09:15:25;;;;;;;187.77;97.82;;;;;;;18.83;70.33;99077.06;5063482;28;20048;-59
2021/12/14 09:18:15;;;;;;;193.68;101.57;;;;;;;18.92;74.27;99079.97;5067986;28;20048;-60
2021/12/14 09:21:07;;;;;;;199.95;102.38;;;;;;;18.88;74.02;99072.41;5065843;28;20048;-60
2021/12/14 09:24:00;;;;;;;196.02;100.22;;;;;;;18.56;70.96;99079.41;5066614;28;20044;-60
2021/12/14 09:26:45;;;;;;;188.65;97.20;;;;;;;18.68;71.75;99078.75;5060336;28;20097;-61
2021/12/14 09:29:35;;;;;;;184.73;98.75;;;;;;;18.79;74.05;99062.50;5059452;28;20060;-61
2021/12/14 09:32:34;;;;;;;186.48;100.03;;;;;;;18.68;73.59;99063.94;5061414;28;20071;-62
2021/12/14 09:35:35;;;;;;;190.85;101.22;;;;;;;18.77;72.03;99061.72;5053261;28;20045;-61
2021/12/14 09:38:13;;;;;;;170.80;94.65;;;;;;;18.73;74.34;99061.06;5078216;28;20083;-60
2021/12/14 09:41:15;;;;;;;195.98;102.00;;;;;;;18.68;72.90;99068.31;5064715;28;20044;-59
2021/12/14 09:43:52;;;;;;;184.18;100.43;;;;;;;18.64;73.54;99066.81;5067455;28;20056;-61
2021/12/14 09:46:41;;;;;;;181.82;99.95;;;;;;;18.67;74.26;99061.44;5046707;28;20415;-60
2021/12/14 09:49:25;;;;;;;198.93;102.55;;;;;;;18.71;77.47;99063.78;5063782;28;20049;-60
2021/12/14 09:52:25;;;;;;;198.45;102.38;;;;;;;18.55;75.25;99055.09;5064072;28;20897;-60
2021/12/14 09:55:10;;;;;;;191.07;103.25;;;;;;;18.55;77.31;99052.47;5048013;28;20058;-60
2021/12/14 09:58:19;;;;;;;206.30;100.82;;;;;;;18.49;76.91;99057.22;5064122;28;20052;-61
2021/12/14 10:01:26;;;;;;;197.73;105.00;;;;;;;18.54;75.31;99066.44;5047237;28;20063;-60
2021/12/14 10:04:28;;;;;;;191.23;105.03;;;;;;;18.50;79.95;99059.75;5006400;28;20492;-60
2021/12/14 10:07:17;;;;;;;190.45;103.32;;;;;;;18.47;77.17;99059.91;5064425;28;20132;-60
2021/12/14 10:10:02;;;;;;;203.70;104.55;;;;;;;18.46;77.97;99052.16;5064713;28;20060;-61
2021/12/14 10:12:54;;;;;;;201.55;102.40;;;;;;;18.46;76.36;99057.38;5064892;28;20056;-60
2021/12/14 10:15:44;;;;;;;187.88;103.40;;;;;;;18.45;82.54;99051.31;5047354;28;20048;-60
2021/12/14 10:18:36;;;;;;;188.13;103.97;;;;;;;18.36;82.29;99052.66;5064214;28;20075;-61
2021/12/14 10:21:58;;;;;;;191.60;103.22;;;;;;;18.29;80.57;99053.94;5062533;28;20047;-61
2021/12/14 10:24:48;;;;;;;201.93;103.22;;;;;;;18.29;76.75;99056.53;4982844;28;20046;-61
2021/12/14 10:27:33;;;;;;;212.35;106.20;;;;;;;18.27;78.16;99047.13;5067311;28;20126;-62
2021/12/14 10:30:27;;;;;;;190.98;105.38;;;;;;;18.23;82.36;99045.59;5065844;28;20040;-62
2021/12/14 10:33:09;;;;;;;199.35;105.05;;;;;;;18.12;85.24;99042.78;5051310;28;20098;-65
2021/12/14 10:36:16;;;;;;;211.46;108.14;;;;;;;18.04;86.90;99035.34;4882307;28;10001250;-67
2021/12/14 10:39:22;;;;;;;200.18;108.40;;;;;;;17.97;89.38;99036.59;5065154;28;20290;-65
2021/12/14 10:45:16;;;;;;;216.20;111.32;;;;;;;17.78;92.10;99041.16;5064849;28;20044;-64
2021/12/14 10:48:05;;;;;;;211.00;111.32;;;;;;;17.71;95.37;99034.56;5065042;28;20094;-63
2021/12/14 10:50:47;;;;;;;203.23;108.38;;;;;;;17.64;95.89;99038.44;5065666;28;20052;-62
2021/12/14 10:53:41;;;;;;;209.13;107.93;;;;;;;17.49;94.10;99040.03;5063816;28;20060;-63
2021/12/14 10:56:55;;;;;;;219.23;111.82;;;;;;;17.43;95.32;99032.53;5065002;28;20099;-62
2021/12/14 10:59:47;;;;;;;223.43;114.15;;;;;;;17.36;96.61;99032.03;5065879;28;20052;-64
2021/12/14 11:02:40;;;;;;;214.68;114.28;;;;;;;17.29;98.11;99035.03;5067314;28;20048;-63
2021/12/14 11:05:30;;;;;;;;;;;;;;;17.19;98.22;99040.69;5067250;28;20052;-64
2021/12/14 11:11:37;;;;;;;250.05;123.85;;;;;;;17.00;100.00;99039.13;5049638;28;20106;-62
2021/12/14 11:14:34;;;;;;;241.60;120.80;;;;;;;16.97;100.00;99050.53;5068565;28;20480;-63
2021/12/14 11:20:39;;;;;;;251.38;118.07;;;;;;;16.77;100.00;99042.84;5062859;28;20040;-63
2021/12/14 11:23:41;;;;;;;267.30;124.72;;;;;;;16.67;100.00;99039.03;5067838;28;20644;-61
2021/12/14 11:26:27;;;;;;;238.68;118.07;;;;;;;16.55;100.00;99034.38;5046755;28;20109;-62
2021/12/14 11:29:20;;;;;;;247.40;120.17;;;;;;;16.45;100.00;99036.56;5061533;28;20591;-63
2021/12/14 11:32:02;;;;;;;239.90;116.57;;;;;;;16.40;100.00;99047.22;5068200;28;20059;-63
2021/12/14 11:34:57;;;;;;;269.73;121.07;;;;;;;16.32;100.00;99045.88;5067514;28;20045;-63
2021/12/14 11:37:54;;;;;;;246.20;119.32;;;;;;;16.21;100.00;99043.78;5069368;28;20080;-62
2021/12/14 11:40:30;;;;;;;236.48;118.95;;;;;;;16.16;100.00;99045.78;5063497;28;20058;-63
2021/12/14 11:43:25;;;;;;;258.52;125.10;;;;;;;16.05;100.00;99043.66;5064608;28;20040;-63
2021/12/14 11:46:06;;;;;;;238.45;122.13;;;;;;;15.97;100.00;99042.31;5064691;28;20048;-63
2021/12/14 11:48:57;;;;;;;265.08;121.90;;;;;;;15.88;100.00;99051.41;5066859;28;20074;-62
2021/12/14 11:51:41;;;;;;;253.23;125.10;;;;;;;15.78;100.00;99052.72;5060178;28;20052;-62
2021/12/14 11:54:30;;;;;;;243.38;119.75;;;;;;;15.72;100.00;99055.63;5064665;28;20125;-63
2021/12/14 11:57:15;;;;;;;251.15;119.75;;;;;;;15.63;100.00;99058.63;5062586;28;20654;-63
2021/12/14 12:00:13;;;;;;;249.35;125.25;;;;;;;15.65;100.00;99057.63;5065104;28;20055;-63
2021/12/14 12:03:58;;;;;;;252.20;122.50;;;;;;;15.66;100.00;99056.72;5065582;28;20060;-63
2021/12/14 12:09:51;;;;;;;265.95;125.95;;;;;;;15.66;100.00;99067.09;5067266;28;20560;-63
2021/12/14 12:12:51;;;;;;;262.50;129.23;;;;;;;15.56;100.00;99055.47;5067170;28;20048;-63
2021/12/14 12:15:43;;;;;;;265.40;130.90;;;;;;;15.52;100.00;99058.19;5065693;28;20059;-63
2021/12/14 12:18:25;;;;;;;262.65;136.00;;;;;;;15.45;100.00;99068.03;5046721;28;20048;-63
2021/12/14 12:21:14;;;;;;;291.63;135.00;;;;;;;15.37;100.00;99059.72;5065224;28;20539;-63
2021/12/14 12:23:56;;;;;;;300.42;140.27;;;;;;;15.33;100.00;99060.75;5067045;28;20051;-68
2021/12/14 12:26:45;;;;;;;285.05;141.07;;;;;;;15.22;100.00;99075.97;5066942;28;20082;-64
2021/12/14 12:29:33;;;;;;;290.45;141.50;;;;;;;15.15;100.00;99069.34;5047740;28;20059;-63
2021/12/14 12:32:35;;;;;;;289.48;142.57;;;;;;;15.04;100.00;99068.94;5062546;28;20098;-64
2021/12/14 12:35:36;;;;;;;309.52;146.48;;;;;;;14.98;100.00;99069.19;5063993;28;20106;-64
2021/12/14 12:38:49;;;;;;;316.35;151.95;;;;;;;14.90;100.00;99078.16;5060127;28;20044;-62
2021/12/14 12:41:49;;;;;;;318.08;153.40;;;;;;;14.85;100.00;99072.28;5064171;28;20052;-62
2021/12/14 12:44:40;;;;;;;315.00;151.70;;;;;;;14.79;100.00;99079.47;5065333;28;20562;-62
2021/12/14 12:47:29;;;;;;;328.40;152.77;;;;;;;14.77;100.00;99083.88;5064447;28;20044;-62
2021/12/14 12:50:22;;;;;;;305.45;151.73;;;;;;;14.77;100.00;99089.91;5062180;28;20082;-63
2021/12/14 12:53:04;;;;;;;326.38;154.35;;;;;;;14.74;100.00;99084.88;5065951;28;20080;-63
2021/12/14 12:55:53;;;;;;;317.52;156.68;;;;;;;14.74;100.00;99099.56;5066741;28;20045;-64
2021/12/14 12:58:49;;;;;;;331.15;158.75;;;;;;;14.76;100.00;99095.19;5065563;28;20056;-63
2021/12/14 13:01:30;;;;;;;330.63;160.52;;;;;;;14.72;100.00;99094.44;5064315;28;20052;-64
2021/12/14 13:04:19;;;;;;;337.38;157.73;;;;;;;14.66;100.00;99096.44;5064536;28;20539;-64
2021/12/14 13:07:09;;;;;;;342.23;161.27;;;;;;;14.62;100.00;99097.47;5064098;28;20511;-63
2021/12/14 13:10:36;;;;;;;331.00;155.85;;;;;;;14.55;100.00;99102.03;5066119;28;20044;-63
2021/12/14 13:13:29;;;;;;;316.33;150.82;;;;;;;14.50;100.00;99104.84;4983156;28;20627;-63
2021/12/14 13:16:20;;;;;;;325.92;157.85;;;;;;;14.48;100.00;99109.22;4981680;28;20696;-64
2021/12/14 13:19:29;;;;;;;341.35;156.27;;;;;;;14.47;100.00;99110.13;5060618;28;20069;-63
2021/12/14 13:22:07;;;;;;;340.42;155.05;;;;;;;14.44;100.00;99112.84;5064837;28;20044;-62
2021/12/14 13:24:56;;;;;;;325.73;159.70;;;;;;;14.41;100.00;99107.78;5067271;28;20123;-63
2021/12/14 13:27:37;;;;;;;338.40;154.07;;;;;;;14.39;100.00;99108.72;4714371;28;10000431;-62
2021/12/14 13:30:30;;;;;;;330.70;155.75;;;;;;;14.36;100.00;99111.44;5064657;28;20086;-61
2021/12/14 13:33:30;;;;;;;330.15;156.63;;;;;;;14.31;100.00;99109.00;5045208;28;20067;-61
2021/12/14 13:36:20;;;;;;;340.08;158.23;;;;;;;14.26;100.00;99120.44;5061386;28;20082;-62
2021/12/14 13:39:02;;;;;;;343.13;159.52;;;;;;;14.26;100.00;99125.63;5061240;28;20081;-63